createdAt,value
2017-09-21T00:00:41.103Z,11.52
2017-09-21T00:01:49.943Z,11.47
2017-09-21T00:02:58.785Z,11.46
2017-09-21T00:04:07.624Z,11.52
2017-09-21T00:05:16.463Z,11.54
2017-09-21T00:06:25.783Z,11.52
2017-09-21T00:07:34.625Z,11.49
2017-09-21T00:08:43.464Z,11.4
2017-09-21T00:09:52.306Z,11.39
2017-09-21T00:11:01.153Z,11.4
2017-09-21T00:12:10.146Z,11.43
2017-09-21T00:13:18.982Z,11.36
2017-09-21T00:14:27.826Z,11.39
2017-09-21T00:15:36.667Z,11.35
2017-09-21T00:16:45.508Z,11.24
2017-09-21T00:17:54.397Z,11.32
2017-09-21T00:19:03.236Z,11.24
2017-09-21T00:20:12.079Z,11.19
2017-09-21T00:21:20.920Z,11.24
2017-09-21T00:22:30.095Z,11.24
2017-09-21T00:23:39.089Z,11.25
2017-09-21T00:24:47.931Z,11.29
2017-09-21T00:25:56.773Z,11.24
2017-09-21T00:27:05.949Z,11.25
2017-09-21T00:28:14.787Z,11.27
2017-09-21T00:29:23.786Z,11.27
2017-09-21T00:30:32.620Z,11.22
2017-09-21T00:31:41.467Z,11.21
2017-09-21T00:32:50.301Z,11.21
2017-09-21T00:33:59.142Z,11.18
2017-09-21T00:35:08.280Z,11.18
2017-09-21T00:36:17.121Z,11.22
2017-09-21T00:37:25.959Z,11.21
2017-09-21T00:38:34.802Z,11.22
2017-09-21T00:39:43.642Z,11.18
2017-09-21T00:40:52.682Z,11.24
2017-09-21T00:42:01.522Z,11.19
2017-09-21T00:43:10.362Z,11.24
2017-09-21T00:44:19.203Z,11.27
2017-09-21T00:45:28.385Z,11.25
2017-09-21T00:46:37.423Z,11.18
2017-09-21T00:47:46.263Z,11.27
2017-09-21T00:48:55.113Z,11.27
2017-09-21T00:50:03.954Z,11.27
2017-09-21T00:51:12.795Z,11.28
2017-09-21T00:52:21.888Z,11.29
2017-09-21T00:53:30.733Z,11.32
2017-09-21T00:54:39.571Z,11.43
2017-09-21T00:55:48.412Z,11.44
2017-09-21T00:56:57.250Z,11.33
2017-09-21T00:58:06.362Z,11.35
2017-09-21T00:59:15.184Z,11.39
2017-09-21T01:00:24.027Z,11.46
2017-09-21T01:01:32.867Z,11.42
2017-09-21T01:02:41.711Z,11.47
2017-09-21T01:03:50.754Z,11.44
2017-09-21T01:04:59.591Z,11.44
2017-09-21T01:06:08.430Z,11.44
2017-09-21T01:07:17.273Z,11.37
2017-09-21T01:08:26.111Z,11.51
2017-09-21T01:09:35.005Z,11.51
2017-09-21T01:10:43.845Z,11.42
2017-09-21T01:11:52.684Z,11.44
2017-09-21T01:13:01.525Z,11.42
2017-09-21T01:14:10.365Z,11.39
2017-09-21T01:15:19.255Z,11.39
2017-09-21T01:16:28.094Z,11.49
2017-09-21T01:17:36.943Z,11.44
2017-09-21T01:18:45.783Z,11.42
2017-09-21T01:19:54.624Z,11.42
2017-09-21T01:21:03.593Z,11.42
2017-09-21T01:22:12.437Z,11.44
2017-09-21T01:23:21.271Z,11.37
2017-09-21T01:24:30.117Z,11.36
2017-09-21T01:25:38.952Z,11.39
2017-09-21T01:26:47.944Z,11.37
2017-09-21T01:27:56.785Z,11.39
2017-09-21T01:29:05.654Z,11.39
2017-09-21T01:30:14.469Z,11.35
2017-09-21T01:31:23.642Z,11.32
2017-09-21T01:32:32.485Z,11.46
2017-09-21T01:33:41.327Z,11.43
2017-09-21T01:34:50.170Z,11.4
2017-09-21T01:35:59.009Z,11.44
2017-09-21T01:37:07.851Z,11.37
2017-09-21T01:38:16.992Z,11.4
2017-09-21T01:39:25.832Z,11.36
2017-09-21T01:40:34.672Z,11.4
2017-09-21T01:41:43.515Z,11.44
2017-09-21T01:42:52.357Z,11.35
2017-09-21T01:44:01.497Z,11.37
2017-09-21T01:45:10.343Z,11.39
2017-09-21T01:46:19.184Z,11.4
2017-09-21T01:47:28.024Z,11.43
2017-09-21T01:48:36.888Z,11.42
2017-09-21T01:49:45.906Z,11.49
2017-09-21T01:50:54.745Z,11.44
2017-09-21T01:52:03.584Z,11.46
2017-09-21T01:53:12.425Z,11.46
2017-09-21T01:54:21.264Z,11.39
2017-09-21T01:55:30.199Z,11.39
2017-09-21T01:56:39.036Z,11.46
2017-09-21T01:57:47.881Z,11.49
2017-09-21T01:58:56.724Z,11.46
2017-09-21T02:00:05.565Z,11.37
2017-09-21T02:01:14.557Z,11.49
2017-09-21T02:02:23.399Z,11.49
2017-09-21T02:03:32.241Z,11.47
2017-09-21T02:04:41.082Z,11.44
2017-09-21T02:05:49.929Z,11.43
2017-09-21T02:06:58.923Z,11.44
2017-09-21T02:08:07.764Z,11.46
2017-09-21T02:09:16.605Z,11.52
2017-09-21T02:10:25.447Z,11.49
2017-09-21T02:11:34.289Z,11.57
2017-09-21T02:12:43.133Z,11.55
2017-09-21T02:13:52.307Z,11.51
2017-09-21T02:15:01.150Z,11.51
2017-09-21T02:16:09.991Z,11.54
2017-09-21T02:17:18.836Z,11.47
2017-09-21T02:18:27.928Z,11.55
2017-09-21T02:19:36.771Z,11.55
2017-09-21T02:20:45.614Z,11.52
2017-09-21T02:21:54.456Z,11.52
2017-09-21T02:23:03.297Z,11.58
2017-09-21T02:24:12.140Z,11.54
2017-09-21T02:25:20.980Z,11.57
2017-09-21T02:26:29.824Z,11.46
2017-09-21T02:27:38.665Z,11.55
2017-09-21T02:28:47.512Z,11.51
2017-09-21T02:29:56.738Z,11.6
2017-09-21T02:31:05.580Z,11.55
2017-09-21T02:32:14.424Z,11.58
2017-09-21T02:33:23.267Z,11.49
2017-09-21T02:34:32.447Z,11.57
2017-09-21T02:35:41.391Z,11.55
2017-09-21T02:36:50.240Z,11.57
2017-09-21T02:37:59.075Z,11.6
2017-09-21T02:39:07.918Z,11.47
2017-09-21T02:40:16.768Z,11.54
2017-09-21T02:41:26.357Z,11.47
2017-09-21T02:42:35.199Z,11.55
2017-09-21T02:43:44.042Z,11.58
2017-09-21T02:44:52.907Z,11.52
2017-09-21T02:46:01.733Z,11.51
2017-09-21T02:47:10.629Z,11.57
2017-09-21T02:48:19.473Z,11.54
2017-09-21T02:49:28.652Z,11.6
2017-09-21T02:50:37.828Z,11.58
2017-09-21T02:51:46.675Z,11.55
2017-09-21T02:52:56.051Z,11.57
2017-09-21T02:54:04.895Z,11.6
2017-09-21T02:55:13.740Z,11.54
2017-09-21T02:56:22.583Z,11.54
2017-09-21T02:57:31.763Z,11.54
2017-09-21T02:58:40.756Z,11.51
2017-09-21T02:59:49.599Z,11.52
2017-09-21T03:00:58.447Z,11.4
2017-09-21T03:02:07.289Z,11.55
2017-09-21T03:03:16.136Z,11.51
2017-09-21T03:04:25.122Z,11.51
2017-09-21T03:05:33.967Z,11.52
2017-09-21T03:06:42.809Z,11.52
2017-09-21T03:07:51.652Z,11.52
2017-09-21T03:09:00.494Z,11.52
2017-09-21T03:10:09.718Z,11.55
2017-09-21T03:11:18.560Z,11.54
2017-09-21T03:12:27.401Z,11.44
2017-09-21T03:13:36.245Z,11.52
2017-09-21T03:14:45.427Z,11.47
2017-09-21T03:15:54.412Z,11.44
2017-09-21T03:17:03.255Z,11.51
2017-09-21T03:18:12.099Z,11.49
2017-09-21T03:19:20.939Z,11.49
2017-09-21T03:20:29.782Z,11.44
2017-09-21T03:21:38.674Z,11.51
2017-09-21T03:22:47.513Z,11.43
2017-09-21T03:23:56.361Z,11.39
2017-09-21T03:25:05.207Z,11.46
2017-09-21T03:26:14.050Z,11.49
2017-09-21T03:27:22.993Z,11.4
2017-09-21T03:28:31.836Z,11.42
2017-09-21T03:29:40.679Z,11.36
2017-09-21T03:30:49.527Z,11.4
2017-09-21T03:31:58.370Z,11.37
2017-09-21T03:33:07.314Z,11.43
2017-09-21T03:34:16.159Z,11.36
2017-09-21T03:35:25.002Z,11.42
2017-09-21T03:36:33.847Z,11.39
2017-09-21T03:37:42.689Z,11.37
2017-09-21T03:38:51.681Z,11.42
2017-09-21T03:40:00.525Z,11.37
2017-09-21T03:41:09.368Z,11.39
2017-09-21T03:42:18.212Z,11.39
2017-09-21T03:43:27.052Z,11.37
2017-09-21T03:44:36.049Z,11.37
2017-09-21T03:45:44.888Z,11.43
2017-09-21T03:46:53.732Z,11.4
2017-09-21T03:48:02.573Z,11.35
2017-09-21T03:49:11.418Z,11.29
2017-09-21T03:50:20.262Z,11.35
2017-09-21T03:51:29.103Z,11.32
2017-09-21T03:52:37.945Z,11.29
2017-09-21T03:53:46.788Z,11.28
2017-09-21T03:54:55.969Z,11.36
2017-09-21T03:56:05.115Z,11.29
2017-09-21T03:57:13.954Z,11.25
2017-09-21T03:58:23.131Z,11.21
2017-09-21T03:59:31.980Z,11.19
2017-09-21T04:00:41.152Z,11.25
2017-09-21T04:01:50.143Z,11.24
2017-09-21T04:02:58.987Z,11.22
2017-09-21T04:04:07.829Z,11.21
2017-09-21T04:05:16.672Z,11.28
2017-09-21T04:06:25.514Z,11.28
2017-09-21T04:07:34.407Z,11.21
2017-09-21T04:08:43.249Z,11.28
2017-09-21T04:09:52.088Z,11.28
2017-09-21T04:11:01.263Z,11.25
2017-09-21T04:12:10.105Z,11.25
2017-09-21T04:13:19.097Z,11.28
2017-09-21T04:14:27.937Z,11.22
2017-09-21T04:15:36.782Z,11.21
2017-09-21T04:16:45.619Z,11.22
2017-09-21T04:17:54.460Z,11.19
2017-09-21T04:19:03.500Z,11.24
2017-09-21T04:20:12.339Z,11.22
2017-09-21T04:21:21.178Z,11.15
2017-09-21T04:22:30.351Z,11.19
2017-09-21T04:23:39.195Z,11.09
2017-09-21T04:24:48.084Z,11.11
2017-09-21T04:25:56.929Z,11.07
2017-09-21T04:27:05.771Z,11.21
2017-09-21T04:28:14.613Z,11.15
2017-09-21T04:29:23.453Z,11.14
2017-09-21T04:30:32.396Z,11.09
2017-09-21T04:31:41.235Z,11.17
2017-09-21T04:32:50.408Z,11.09
2017-09-21T04:33:59.249Z,11.1
2017-09-21T04:35:08.092Z,11.14
2017-09-21T04:36:17.085Z,11.14
2017-09-21T04:37:25.936Z,11.14
2017-09-21T04:38:34.779Z,11.14
2017-09-21T04:39:43.620Z,11.24
2017-09-21T04:40:52.460Z,11.11
2017-09-21T04:42:01.500Z,11.14
2017-09-21T04:43:10.342Z,11.17
2017-09-21T04:44:19.183Z,11.21
2017-09-21T04:45:28.024Z,11.17
2017-09-21T04:46:36.868Z,11.22
2017-09-21T04:47:46.244Z,11.24
2017-09-21T04:48:55.087Z,11.18
2017-09-21T04:50:03.929Z,11.24
2017-09-21T04:51:12.771Z,11.21
2017-09-21T04:52:21.614Z,11.24
2017-09-21T04:53:30.508Z,11.28
2017-09-21T04:54:39.348Z,11.27
2017-09-21T04:55:48.191Z,11.25
2017-09-21T04:56:57.370Z,11.18
2017-09-21T04:58:06.208Z,11.22
2017-09-21T04:59:15.201Z,11.21
2017-09-21T05:00:24.044Z,11.22
2017-09-21T05:01:32.889Z,11.21
2017-09-21T05:02:41.732Z,11.25
2017-09-21T05:03:50.576Z,11.27
2017-09-21T05:04:59.718Z,11.22
2017-09-21T05:06:08.904Z,11.22
2017-09-21T05:07:17.745Z,11.25
2017-09-21T05:08:26.589Z,11.24
2017-09-21T05:09:35.434Z,11.25
2017-09-21T05:10:44.662Z,11.28
2017-09-21T05:11:53.506Z,11.24
2017-09-21T05:13:02.348Z,11.27
2017-09-21T05:14:11.194Z,11.27
2017-09-21T05:15:20.038Z,11.27
2017-09-21T05:16:29.034Z,11.22
2017-09-21T05:17:37.881Z,11.24
2017-09-21T05:18:46.721Z,11.27
2017-09-21T05:19:55.563Z,11.25
2017-09-21T05:21:04.406Z,11.28
2017-09-21T05:22:13.499Z,11.24
2017-09-21T05:23:22.342Z,11.18
2017-09-21T05:24:31.523Z,11.27
2017-09-21T05:25:40.365Z,11.32
2017-09-21T05:26:49.210Z,11.28
2017-09-21T05:27:58.056Z,11.33
2017-09-21T05:29:06.898Z,11.28
2017-09-21T05:30:15.742Z,11.29
2017-09-21T05:31:24.584Z,11.35
2017-09-21T05:32:33.428Z,11.33
2017-09-21T05:33:42.419Z,11.35
2017-09-21T05:34:51.260Z,11.29
2017-09-21T05:36:00.102Z,11.33
2017-09-21T05:37:08.944Z,11.35
2017-09-21T05:38:17.788Z,11.37
2017-09-21T05:39:26.681Z,11.36
2017-09-21T05:40:35.525Z,11.43
2017-09-21T05:41:44.362Z,11.35
2017-09-21T05:42:53.557Z,11.35
2017-09-21T05:44:02.399Z,11.4
2017-09-21T05:45:11.394Z,11.43
2017-09-21T05:46:20.568Z,11.43
2017-09-21T05:47:29.410Z,11.51
2017-09-21T05:48:38.253Z,11.43
2017-09-21T05:49:47.098Z,11.43
2017-09-21T05:50:56.141Z,11.49
2017-09-21T05:52:04.985Z,11.52
2017-09-21T05:53:13.828Z,11.55
2017-09-21T05:54:22.675Z,11.6
2017-09-21T05:55:31.518Z,11.58
2017-09-21T05:56:40.413Z,11.55
2017-09-21T05:57:49.258Z,11.55
2017-09-21T05:58:58.103Z,11.62
2017-09-21T06:00:07.285Z,11.58
2017-09-21T06:01:16.129Z,11.7
2017-09-21T06:02:25.023Z,11.62
2017-09-21T06:03:33.865Z,11.69
2017-09-21T06:04:42.708Z,11.75
2017-09-21T06:05:51.553Z,11.7
2017-09-21T06:07:00.398Z,11.78
2017-09-21T06:08:09.292Z,11.79
2017-09-21T06:09:18.136Z,11.78
2017-09-21T06:10:27.315Z,11.8
2017-09-21T06:11:36.159Z,11.82
2017-09-21T06:12:45.006Z,11.79
2017-09-21T06:13:54.337Z,11.85
2017-09-21T06:15:03.181Z,11.8
2017-09-21T06:16:12.024Z,11.96
2017-09-21T06:17:20.867Z,11.8
2017-09-21T06:18:29.710Z,11.94
2017-09-21T06:19:38.603Z,11.94
2017-09-21T06:20:47.446Z,12.12
2017-09-21T06:21:56.291Z,12.04
2017-09-21T06:23:05.131Z,12.02
2017-09-21T06:24:13.975Z,12.09
2017-09-21T06:25:22.918Z,12.05
2017-09-21T06:26:31.761Z,12.02
2017-09-21T06:27:40.606Z,12.04
2017-09-21T06:28:49.450Z,12.09
2017-09-21T06:29:58.296Z,12.05
2017-09-21T06:31:07.287Z,12.12
2017-09-21T06:32:16.470Z,12.14
2017-09-21T06:33:25.315Z,12.2
2017-09-21T06:34:34.159Z,12.2
2017-09-21T06:35:43.338Z,12.14
2017-09-21T06:36:52.332Z,12.23
2017-09-21T06:38:01.176Z,12.23
2017-09-21T06:39:10.357Z,12.29
2017-09-21T06:40:19.200Z,12.27
2017-09-21T06:41:28.045Z,12.32
2017-09-21T06:42:37.047Z,12.39
2017-09-21T06:43:45.892Z,12.38
2017-09-21T06:44:54.732Z,12.42
2017-09-21T06:46:03.585Z,12.41
2017-09-21T06:47:12.437Z,12.46
2017-09-21T06:48:21.431Z,12.52
2017-09-21T06:49:30.639Z,12.52
2017-09-21T06:50:39.487Z,12.47
2017-09-21T06:51:48.332Z,12.57
2017-09-21T06:52:57.506Z,12.53
2017-09-21T06:54:06.451Z,12.52
2017-09-21T06:55:15.299Z,12.5
2017-09-21T06:56:24.144Z,12.56
2017-09-21T06:57:32.992Z,12.65
2017-09-21T06:58:41.845Z,12.65
2017-09-21T06:59:50.741Z,12.78
2017-09-21T07:00:59.585Z,12.77
2017-09-21T07:02:08.427Z,12.85
2017-09-21T07:03:17.271Z,12.85
2017-09-21T07:04:26.448Z,12.89
2017-09-21T07:05:35.593Z,13.01
2017-09-21T07:06:44.437Z,13
2017-09-21T07:07:53.280Z,13.01
2017-09-21T07:09:02.461Z,13.03
2017-09-21T07:10:11.308Z,13.11
2017-09-21T07:11:20.452Z,13.2
2017-09-21T07:12:29.299Z,13.2
2017-09-21T07:13:38.144Z,13.3
2017-09-21T07:14:46.988Z,13.29
2017-09-21T07:15:55.834Z,13.38
2017-09-21T07:17:04.831Z,13.3
2017-09-21T07:18:13.676Z,13.46
2017-09-21T07:19:22.520Z,13.48
2017-09-21T07:20:31.363Z,13.52
2017-09-21T07:21:40.208Z,13.46
2017-09-21T07:22:49.176Z,13.55
2017-09-21T07:23:58.020Z,13.59
2017-09-21T07:25:07.197Z,13.49
2017-09-21T07:26:16.378Z,13.63
2017-09-21T07:27:25.229Z,13.64
2017-09-21T07:28:34.215Z,13.71
2017-09-21T07:29:43.059Z,13.75
2017-09-21T07:30:51.906Z,13.77
2017-09-21T07:32:00.750Z,13.81
2017-09-21T07:33:09.594Z,13.82
2017-09-21T07:34:18.487Z,13.85
2017-09-21T07:35:27.678Z,13.89
2017-09-21T07:36:36.536Z,13.89
2017-09-21T07:37:45.407Z,13.91
2017-09-21T07:38:54.258Z,13.95
2017-09-21T07:40:03.158Z,14.03
2017-09-21T07:41:12.011Z,14.04
2017-09-21T07:42:20.867Z,14.06
2017-09-21T07:43:29.711Z,14.03
2017-09-21T07:44:38.556Z,14.03
2017-09-21T07:45:47.703Z,14
2017-09-21T07:46:56.550Z,14.1
2017-09-21T07:48:05.395Z,14.18
2017-09-21T07:49:14.238Z,14.17
2017-09-21T07:50:23.086Z,14.17
2017-09-21T07:51:32.753Z,14.28
2017-09-21T07:52:41.610Z,14.29
2017-09-21T07:53:50.458Z,14.28
2017-09-21T07:54:59.301Z,14.29
2017-09-21T07:56:08.146Z,14.28
2017-09-21T07:57:17.142Z,14.4
2017-09-21T07:58:26.316Z,14.43
2017-09-21T07:59:35.162Z,14.46
2017-09-21T08:00:44.010Z,14.57
2017-09-21T08:01:52.859Z,14.51
2017-09-21T08:03:01.904Z,14.51
2017-09-21T08:04:10.750Z,14.58
2017-09-21T08:05:19.596Z,14.58
2017-09-21T08:06:28.441Z,14.72
2017-09-21T08:07:37.283Z,14.77
2017-09-21T08:08:46.533Z,14.81
2017-09-21T08:09:55.707Z,14.83
2017-09-21T08:11:04.551Z,14.94
2017-09-21T08:12:13.737Z,14.99
2017-09-21T08:13:22.914Z,14.96
2017-09-21T08:14:32.110Z,14.96
2017-09-21T08:15:40.954Z,14.95
2017-09-21T08:16:49.800Z,14.98
2017-09-21T08:17:58.646Z,14.99
2017-09-21T08:19:07.490Z,14.95
2017-09-21T08:20:16.487Z,14.96
2017-09-21T08:21:25.332Z,15.01
2017-09-21T08:22:34.178Z,14.96
2017-09-21T08:23:43.031Z,14.91
2017-09-21T08:24:51.875Z,14.91
2017-09-21T08:26:00.868Z,14.98
2017-09-21T08:27:09.713Z,14.96
2017-09-21T08:28:18.560Z,14.99
2017-09-21T08:29:27.406Z,15.01
2017-09-21T08:30:36.919Z,14.98
2017-09-21T08:31:46.015Z,14.98
2017-09-21T08:32:54.859Z,14.96
2017-09-21T08:34:03.705Z,14.95
2017-09-21T08:35:12.551Z,15.01
2017-09-21T08:36:21.399Z,14.95
2017-09-21T08:37:30.393Z,14.91
2017-09-21T08:38:39.236Z,14.94
2017-09-21T08:39:48.083Z,14.83
2017-09-21T08:40:57.260Z,14.92
2017-09-21T08:42:06.101Z,14.81
2017-09-21T08:43:15.198Z,14.78
2017-09-21T08:44:24.049Z,14.77
2017-09-21T08:45:32.892Z,14.89
2017-09-21T08:46:41.732Z,14.83
2017-09-21T08:47:50.577Z,14.78
2017-09-21T08:48:59.521Z,14.77
2017-09-21T08:50:08.368Z,14.86
2017-09-21T08:51:17.545Z,14.86
2017-09-21T08:52:26.391Z,14.89
2017-09-21T08:53:35.236Z,14.77
2017-09-21T08:54:44.231Z,14.91
2017-09-21T08:55:53.079Z,14.88
2017-09-21T08:57:01.926Z,14.83
2017-09-21T08:58:10.768Z,14.99
2017-09-21T08:59:19.611Z,14.95
2017-09-21T09:00:28.606Z,15.06
2017-09-21T09:01:37.451Z,14.99
2017-09-21T09:02:46.632Z,15.07
2017-09-21T09:03:55.476Z,15.02
2017-09-21T09:05:04.322Z,15.13
2017-09-21T09:06:13.266Z,15.13
2017-09-21T09:07:22.111Z,15.09
2017-09-21T09:08:30.958Z,15.14
2017-09-21T09:09:39.805Z,15.28
2017-09-21T09:10:48.649Z,15.29
2017-09-21T09:11:57.597Z,15.28
2017-09-21T09:13:06.443Z,15.27
2017-09-21T09:14:15.289Z,15.28
2017-09-21T09:15:24.132Z,15.36
2017-09-21T09:16:32.979Z,15.49
2017-09-21T09:17:41.875Z,15.53
2017-09-21T09:18:50.722Z,15.57
2017-09-21T09:19:59.568Z,15.51
2017-09-21T09:21:08.414Z,15.54
2017-09-21T09:22:17.261Z,15.57
2017-09-21T09:23:26.256Z,15.65
2017-09-21T09:24:35.104Z,15.54
2017-09-21T09:25:44.281Z,15.53
2017-09-21T09:26:53.132Z,15.67
2017-09-21T09:28:01.972Z,15.74
2017-09-21T09:29:10.867Z,15.71
2017-09-21T09:30:19.714Z,15.78
2017-09-21T09:31:28.563Z,15.86
2017-09-21T09:32:37.409Z,15.92
2017-09-21T09:33:46.253Z,15.93
2017-09-21T09:34:55.151Z,15.97
2017-09-21T09:36:03.996Z,15.78
2017-09-21T09:37:12.839Z,15.83
2017-09-21T09:38:21.683Z,15.84
2017-09-21T09:39:30.530Z,15.87
2017-09-21T09:40:39.680Z,15.94
2017-09-21T09:41:48.527Z,16.24
2017-09-21T09:42:57.723Z,16.12
2017-09-21T09:44:06.569Z,16.27
2017-09-21T09:45:15.415Z,16.24
2017-09-21T09:46:24.316Z,16.12
2017-09-21T09:47:33.498Z,16.34
2017-09-21T09:48:42.343Z,16.23
2017-09-21T09:49:51.190Z,16.34
2017-09-21T09:51:00.038Z,16.42
2017-09-21T09:52:09.135Z,16.48
2017-09-21T09:53:17.981Z,16.48
2017-09-21T09:54:27.168Z,16.45
2017-09-21T09:55:36.013Z,16.31
2017-09-21T09:56:44.866Z,16.33
2017-09-21T09:57:54.093Z,16.46
2017-09-21T09:59:02.939Z,16.49
2017-09-21T10:00:11.786Z,16.58
2017-09-21T10:01:20.633Z,16.58
2017-09-21T10:02:29.479Z,16.71
2017-09-21T10:03:38.472Z,16.81
2017-09-21T10:04:47.369Z,16.71
2017-09-21T10:05:56.217Z,16.75
2017-09-21T10:07:05.065Z,16.75
2017-09-21T10:08:13.915Z,16.63
2017-09-21T10:09:23.237Z,16.73
2017-09-21T10:10:32.415Z,16.81
2017-09-21T10:11:41.535Z,16.94
2017-09-21T10:12:50.488Z,16.91
2017-09-21T10:13:59.419Z,16.93
2017-09-21T10:15:08.686Z,16.94
2017-09-21T10:16:17.622Z,16.93
2017-09-21T10:17:26.493Z,16.97
2017-09-21T10:18:35.367Z,17.04
2017-09-21T10:19:44.262Z,16.98
2017-09-21T10:20:53.211Z,17.07
2017-09-21T10:22:02.110Z,17.15
2017-09-21T10:23:11.031Z,17.18
2017-09-21T10:24:19.913Z,17.15
2017-09-21T10:25:28.849Z,17.19
2017-09-21T10:26:37.925Z,17.12
2017-09-21T10:27:47.196Z,17.04
2017-09-21T10:28:56.081Z,17.11
2017-09-21T10:30:04.929Z,17.21
2017-09-21T10:31:13.879Z,17.22
2017-09-21T10:32:22.767Z,17.21
2017-09-21T10:33:31.681Z,17.31
2017-09-21T10:34:40.593Z,17.28
2017-09-21T10:35:49.527Z,17.34
2017-09-21T10:36:58.435Z,17.36
2017-09-21T10:38:07.466Z,17.38
2017-09-21T10:39:16.379Z,17.34
2017-09-21T10:40:25.608Z,17.34
2017-09-21T10:41:34.472Z,17.36
2017-09-21T10:42:43.762Z,17.41
2017-09-21T10:43:52.702Z,17.49
2017-09-21T10:45:01.760Z,17.55
2017-09-21T10:46:10.684Z,17.63
2017-09-21T10:47:19.594Z,17.37
2017-09-21T10:48:28.486Z,17.43
2017-09-21T10:50:07.134Z,17.49
2017-09-21T10:51:16.050Z,17.54
2017-09-21T10:52:24.931Z,17.66
2017-09-21T10:53:33.836Z,17.58
2017-09-21T10:54:43.161Z,17.54
2017-09-21T10:55:52.093Z,17.58
2017-09-21T10:57:00.957Z,17.68
2017-09-21T10:58:09.840Z,17.81
2017-09-21T10:59:18.710Z,17.9
2017-09-21T11:00:27.809Z,17.9
2017-09-21T11:01:36.694Z,17.9
2017-09-21T11:02:45.610Z,17.9
2017-09-21T11:03:54.494Z,17.84
2017-09-21T11:05:03.392Z,17.89
2017-09-21T11:06:12.548Z,17.95
2017-09-21T11:07:21.455Z,18.05
2017-09-21T11:08:30.388Z,18.17
2017-09-21T11:09:39.306Z,18.21
2017-09-21T11:10:48.293Z,18.33
2017-09-21T11:11:57.299Z,18.18
2017-09-21T11:13:06.198Z,18.21
2017-09-21T11:14:15.112Z,18.14
2017-09-21T11:15:24.022Z,18.18
2017-09-21T11:16:32.967Z,18.15
2017-09-21T11:17:41.981Z,18.15
2017-09-21T11:18:50.903Z,18.25
2017-09-21T11:19:59.801Z,18.25
2017-09-21T11:21:08.718Z,18.39
2017-09-21T11:22:17.583Z,18.37
2017-09-21T11:23:26.924Z,18.52
2017-09-21T11:24:35.813Z,18.52
2017-09-21T11:25:44.745Z,18.52
2017-09-21T11:26:53.642Z,18.55
2017-09-21T11:28:02.952Z,18.48
2017-09-21T11:29:11.928Z,18.51
2017-09-21T11:30:20.834Z,18.47
2017-09-21T11:31:29.748Z,18.29
2017-09-21T11:32:38.642Z,18.51
2017-09-21T11:33:47.570Z,18.47
2017-09-21T11:34:56.660Z,18.51
2017-09-21T11:36:05.538Z,18.52
2017-09-21T11:37:14.792Z,18.57
2017-09-21T11:38:23.656Z,18.54
2017-09-21T11:39:32.601Z,18.63
2017-09-21T11:40:41.734Z,18.69
2017-09-21T11:41:50.691Z,18.75
2017-09-21T11:42:59.804Z,18.76
2017-09-21T11:44:08.716Z,18.8
2017-09-21T11:45:17.703Z,18.95
2017-09-21T11:46:26.885Z,18.82
2017-09-21T11:47:36.119Z,18.84
2017-09-21T11:48:44.970Z,18.78
2017-09-21T11:49:53.829Z,18.75
2017-09-21T11:51:02.693Z,18.84
2017-09-21T11:52:12.074Z,18.72
2017-09-21T11:53:20.923Z,18.85
2017-09-21T11:54:29.776Z,18.87
2017-09-21T11:55:38.624Z,18.88
2017-09-21T11:56:47.477Z,18.87
2017-09-21T11:57:56.478Z,18.88
2017-09-21T11:59:05.332Z,18.9
2017-09-21T12:00:14.184Z,19.02
2017-09-21T12:01:23.035Z,19.08
2017-09-21T12:02:31.883Z,19.07
2017-09-21T12:03:40.832Z,19.19
2017-09-21T12:04:49.681Z,19.32
2017-09-21T12:05:58.535Z,19.43
2017-09-21T12:07:07.389Z,19.37
2017-09-21T12:08:16.246Z,19.56
2017-09-21T12:09:25.354Z,19.4
2017-09-21T12:10:34.208Z,19.69
2017-09-21T12:11:43.058Z,19.73
2017-09-21T12:12:51.910Z,19.84
2017-09-21T12:14:00.764Z,19.87
2017-09-21T12:15:09.666Z,19.96
2017-09-21T12:16:18.519Z,20.05
2017-09-21T12:17:27.374Z,19.99
2017-09-21T12:18:36.227Z,19.98
2017-09-21T12:19:45.078Z,19.88
2017-09-21T12:20:54.234Z,19.96
2017-09-21T12:22:03.085Z,19.92
2017-09-21T12:23:11.945Z,19.71
2017-09-21T12:24:20.802Z,19.58
2017-09-21T12:25:29.653Z,19.54
2017-09-21T12:26:38.655Z,19.51
2017-09-21T12:27:47.836Z,19.59
2017-09-21T12:28:56.687Z,19.58
2017-09-21T12:30:05.536Z,19.78
2017-09-21T12:31:14.387Z,19.81
2017-09-21T12:32:23.389Z,19.88
2017-09-21T12:33:32.242Z,20.1
2017-09-21T12:34:41.094Z,20.13
2017-09-21T12:35:49.945Z,20.13
2017-09-21T12:36:58.802Z,20.14
2017-09-21T12:38:07.653Z,20.02
2017-09-21T12:39:16.504Z,20.1
2017-09-21T12:40:25.356Z,20.08
2017-09-21T12:41:34.240Z,20.17
2017-09-21T12:42:43.092Z,20.08
2017-09-21T12:43:51.946Z,19.87
2017-09-21T12:45:00.800Z,19.94
2017-09-21T12:46:09.654Z,19.94
2017-09-21T12:47:18.508Z,19.95
2017-09-21T12:48:27.698Z,19.94
2017-09-21T12:49:36.549Z,19.87
2017-09-21T12:50:45.401Z,19.83
2017-09-21T12:51:54.252Z,19.81
2017-09-21T12:53:03.103Z,19.74
2017-09-21T12:54:11.956Z,19.68
2017-09-21T12:55:20.810Z,19.62
2017-09-21T12:56:29.669Z,19.61
2017-09-21T12:57:38.520Z,19.59
2017-09-21T12:58:47.373Z,19.73
2017-09-21T12:59:56.220Z,19.58
2017-09-21T13:01:05.072Z,19.59
2017-09-21T13:02:13.921Z,19.65
2017-09-21T13:03:23.075Z,19.56
2017-09-21T13:04:31.928Z,19.63
2017-09-21T13:05:41.453Z,19.61
2017-09-21T13:06:50.305Z,19.68
2017-09-21T13:07:59.160Z,19.59
2017-09-21T13:09:08.007Z,19.69
2017-09-21T13:10:17.189Z,19.62
2017-09-21T13:11:26.041Z,19.61
2017-09-21T13:12:34.891Z,19.74
2017-09-21T13:13:43.752Z,19.65
2017-09-21T13:14:53.007Z,19.76
2017-09-21T13:16:01.859Z,19.69
2017-09-21T13:17:10.709Z,19.63
2017-09-21T13:18:19.560Z,19.59
2017-09-21T13:19:28.411Z,19.59
2017-09-21T13:20:37.360Z,19.59
2017-09-21T13:21:46.211Z,19.69
2017-09-21T13:22:55.070Z,19.73
2017-09-21T13:24:03.911Z,19.74
2017-09-21T13:25:12.766Z,19.74
2017-09-21T13:26:22.000Z,19.69
2017-09-21T13:27:30.977Z,19.71
2017-09-21T13:28:39.934Z,19.81
2017-09-21T13:29:48.887Z,19.81
2017-09-21T13:30:57.881Z,19.74
2017-09-21T13:32:06.907Z,19.87
2017-09-21T13:33:15.861Z,19.74
2017-09-21T13:34:24.782Z,19.88
2017-09-21T13:35:33.673Z,19.95
2017-09-21T13:36:42.583Z,19.91
2017-09-21T13:37:52.129Z,19.88
2017-09-21T13:39:01.026Z,19.86
2017-09-21T13:40:09.917Z,19.92
2017-09-21T13:41:18.859Z,19.88
2017-09-21T13:42:27.813Z,19.83
2017-09-21T13:43:36.927Z,19.87
2017-09-21T13:44:46.120Z,19.91
2017-09-21T13:45:55.084Z,19.94
2017-09-21T13:47:04.014Z,19.87
2017-09-21T13:48:12.946Z,19.98
2017-09-21T13:49:21.826Z,19.74
2017-09-21T13:50:30.787Z,19.83
2017-09-21T13:51:39.749Z,19.95
2017-09-21T13:52:49.055Z,19.87
2017-09-21T13:53:58.271Z,20.05
2017-09-21T13:55:08.504Z,20.03
2017-09-21T13:56:17.616Z,20.1
2017-09-21T13:57:26.608Z,20.08
2017-09-21T13:58:35.485Z,19.99
2017-09-21T13:59:44.394Z,19.96
2017-09-21T14:01:23.047Z,20.01
2017-09-21T14:02:31.940Z,19.95
2017-09-21T14:03:40.935Z,19.91
2017-09-21T14:04:49.861Z,19.86
2017-09-21T14:05:59.550Z,19.96
2017-09-21T14:07:08.496Z,19.95
2017-09-21T14:08:17.417Z,20.01
2017-09-21T14:09:26.352Z,19.87
2017-09-21T14:10:35.594Z,19.87
2017-09-21T14:11:44.551Z,20.02
2017-09-21T14:12:53.534Z,19.99
2017-09-21T14:14:02.485Z,19.96
2017-09-21T14:15:11.586Z,20.02
2017-09-21T14:16:20.709Z,20.03
2017-09-21T14:17:29.852Z,20.06
2017-09-21T14:18:38.844Z,20.13
2017-09-21T14:19:47.781Z,20.23
2017-09-21T14:20:56.682Z,20.2
2017-09-21T14:22:05.668Z,20.17
2017-09-21T14:23:14.916Z,20.26
2017-09-21T14:24:23.867Z,20.24
2017-09-21T14:25:32.929Z,20.29
2017-09-21T14:26:41.783Z,20.35
2017-09-21T14:27:50.662Z,20.32
2017-09-21T14:28:59.722Z,20.29
2017-09-21T14:30:08.632Z,20.47
2017-09-21T14:31:17.522Z,20.41
2017-09-21T14:32:26.434Z,20.43
2017-09-21T14:33:35.637Z,20.32
2017-09-21T14:34:44.742Z,20.39
2017-09-21T14:35:53.708Z,20.38
2017-09-21T14:37:03.770Z,20.39
2017-09-21T14:38:13.159Z,20.39
2017-09-21T14:39:22.089Z,20.42
2017-09-21T14:40:31.054Z,20.32
2017-09-21T14:41:39.989Z,20.39
2017-09-21T14:42:48.867Z,20.35
2017-09-21T14:43:57.755Z,20.32
2017-09-21T14:45:06.681Z,20.29
2017-09-21T14:46:15.730Z,20.31
2017-09-21T14:47:24.592Z,20.26
2017-09-21T14:48:33.473Z,20.33
2017-09-21T14:49:42.757Z,20.23
2017-09-21T14:50:51.650Z,20.31